createdAt,value
2023-05-08T00:02:10.169Z,6.30
2023-05-08T00:04:38.072Z,6.90
2023-05-08T00:07:05.894Z,6.70
2023-05-08T00:09:33.672Z,6.80
2023-05-08T00:12:01.467Z,6.40
2023-05-08T00:14:29.226Z,6.30
2023-05-08T00:16:57.197Z,7.00
2023-05-08T00:19:25.027Z,6.20
2023-05-08T00:21:52.874Z,7.00
2023-05-08T00:24:20.689Z,7.20
2023-05-08T00:26:48.491Z,6.40
2023-05-08T00:29:16.221Z,6.90
2023-05-08T00:31:44.173Z,6.60
2023-05-08T00:34:12.082Z,6.50
2023-05-08T00:36:39.926Z,7.70
2023-05-08T00:39:08.089Z,6.60
2023-05-08T00:41:35.924Z,6.60
2023-05-08T00:44:03.749Z,7.50
2023-05-08T00:46:32.467Z,6.50
2023-05-08T00:49:00.880Z,6.60
2023-05-08T00:51:29.428Z,7.00
2023-05-08T00:53:57.765Z,7.90
2023-05-08T00:56:26.912Z,6.20
2023-05-08T00:58:55.285Z,6.60
2023-05-08T01:01:23.775Z,5.70
2023-05-08T01:03:51.882Z,6.40
2023-05-08T01:06:19.762Z,6.00
2023-05-08T01:08:47.483Z,6.00
2023-05-08T01:11:28.203Z,5.60
2023-05-08T01:14:02.784Z,6.50
2023-05-08T01:17:06.939Z,7.00
2023-05-08T01:19:57.639Z,6.10
2023-05-08T01:23:02.795Z,6.60
2023-05-08T01:26:08.934Z,5.40
2023-05-08T01:28:58.760Z,6.70
2023-05-08T01:31:48.030Z,6.40
2023-05-08T01:34:23.748Z,7.80
2023-05-08T01:37:11.081Z,7.40
2023-05-08T01:39:48.122Z,7.10
2023-05-08T01:42:39.157Z,7.00
2023-05-08T01:45:31.139Z,8.00
2023-05-08T01:48:11.303Z,7.20
2023-05-08T01:50:54.030Z,6.90
2023-05-08T01:53:25.897Z,8.60
2023-05-08T01:55:58.005Z,9.20
2023-05-08T01:58:28.266Z,8.90
2023-05-08T02:00:57.562Z,9.50
2023-05-08T02:03:26.362Z,9.60
2023-05-08T02:05:58.839Z,9.10
2023-05-08T02:08:28.973Z,8.60
2023-05-08T02:10:58.969Z,8.10
2023-05-08T02:13:28.772Z,7.90
2023-05-08T02:18:28.529Z,6.40
2023-05-08T02:20:57.378Z,7.20
2023-05-08T02:23:26.843Z,8.20
2023-05-08T02:25:55.990Z,6.70
2023-05-08T02:28:25.134Z,6.80
2023-05-08T02:30:53.751Z,7.20
2023-05-08T02:33:22.065Z,6.30
2023-05-08T02:35:52.282Z,7.30
2023-05-08T02:38:21.634Z,7.40
2023-05-08T02:41:00.968Z,7.10
2023-05-08T02:43:29.266Z,6.80
2023-05-08T02:45:57.169Z,8.20
2023-05-08T02:48:31.225Z,7.70
2023-05-08T02:51:21.624Z,9.00
2023-05-08T02:54:04.806Z,8.10
2023-05-08T02:56:58.864Z,8.30
2023-05-08T02:59:37.352Z,7.20
2023-05-08T03:02:22.217Z,8.70
2023-05-08T03:04:55.338Z,8.10
2023-05-08T03:07:26.261Z,8.50
2023-05-08T03:10:03.121Z,7.50
2023-05-08T03:12:34.706Z,7.20
2023-05-08T03:15:14.581Z,7.10
2023-05-08T03:17:46.287Z,7.10
2023-05-08T03:20:18.266Z,8.30
2023-05-08T03:22:48.346Z,7.20
2023-05-08T03:25:19.582Z,7.80
2023-05-08T03:27:49.172Z,7.80
2023-05-08T03:30:18.528Z,7.70
2023-05-08T03:32:57.134Z,7.20
2023-05-08T03:35:27.178Z,6.90
2023-05-08T03:37:55.485Z,6.90
2023-05-08T03:40:23.693Z,6.90
2023-05-08T03:42:53.129Z,7.20
2023-05-08T03:45:21.001Z,7.30
2023-05-08T03:47:49.408Z,7.10
2023-05-08T03:50:17.660Z,7.50
2023-05-08T03:52:46.114Z,8.40
2023-05-08T03:55:14.132Z,9.80
2023-05-08T03:57:50.779Z,9.30
2023-05-08T04:00:41.816Z,9.50
2023-05-08T04:03:20.892Z,8.80
2023-05-08T04:06:16.050Z,8.70
2023-05-08T04:09:00.475Z,7.70
2023-05-08T04:11:54.660Z,8.50
2023-05-08T04:14:26.268Z,7.90
2023-05-08T04:17:00.614Z,8.10
2023-05-08T04:19:33.401Z,7.40
2023-05-08T04:22:06.709Z,8.00
2023-05-08T04:24:40.715Z,8.50
2023-05-08T04:27:10.899Z,7.50
2023-05-08T04:29:39.451Z,7.80
2023-05-08T04:32:08.494Z,7.90
2023-05-08T04:34:36.850Z,5.30
2023-05-08T04:37:08.022Z,5.70
2023-05-08T04:39:35.903Z,4.60
2023-05-08T04:42:04.917Z,5.70
2023-05-08T04:44:33.959Z,6.00
2023-05-08T04:47:01.981Z,6.20
2023-05-08T04:49:29.767Z,6.90
2023-05-08T04:51:57.801Z,6.40
2023-05-08T04:54:25.688Z,4.50
2023-05-08T04:56:53.578Z,4.60
2023-05-08T04:59:21.552Z,3.50
2023-05-08T05:01:49.508Z,4.70
2023-05-08T05:04:17.736Z,3.00
2023-05-08T05:06:45.696Z,5.10
2023-05-08T05:09:13.546Z,4.40
2023-05-08T05:11:41.909Z,3.70
2023-05-08T05:14:09.680Z,3.80
2023-05-08T05:16:38.203Z,4.50
2023-05-08T05:19:06.424Z,3.80
2023-05-08T05:21:34.763Z,2.80
2023-05-08T05:24:03.501Z,3.10
2023-05-08T05:26:31.820Z,3.70
2023-05-08T05:29:00.009Z,3.60
2023-05-08T05:31:29.130Z,3.10
2023-05-08T05:33:57.482Z,3.70
2023-05-08T05:36:26.183Z,3.50
2023-05-08T05:38:54.101Z,2.70
2023-05-08T05:41:22.578Z,2.20
2023-05-08T05:43:50.382Z,3.30
2023-05-08T05:46:18.804Z,2.50
2023-05-08T05:48:47.347Z,3.10
2023-05-08T05:51:15.734Z,2.00
2023-05-08T05:53:43.939Z,2.90
2023-05-08T05:56:11.960Z,2.20
2023-05-08T05:58:40.993Z,2.20
2023-05-08T06:01:09.747Z,2.30
2023-05-08T06:03:37.978Z,2.70
2023-05-08T06:06:06.154Z,2.30
2023-05-08T06:08:35.381Z,2.40
2023-05-08T06:11:03.877Z,1.90
2023-05-08T06:13:32.022Z,2.30
2023-05-08T06:16:00.179Z,2.00
2023-05-08T06:18:28.480Z,1.50
2023-05-08T06:21:00.151Z,1.00
2023-05-08T06:23:28.248Z,1.10
2023-05-08T06:25:56.065Z,1.40
2023-05-08T06:28:26.213Z,1.80
2023-05-08T06:30:54.383Z,1.60
2023-05-08T06:33:23.562Z,1.20
2023-05-08T06:35:52.702Z,1.10
2023-05-08T06:38:20.673Z,1.70
2023-05-08T06:40:50.169Z,1.40
2023-05-08T06:45:47.008Z,1.50
2023-05-08T06:48:14.870Z,1.00
2023-05-08T06:50:43.393Z,1.20
2023-05-08T06:53:12.714Z,1.30
2023-05-08T06:55:43.743Z,1.50
2023-05-08T06:58:11.527Z,1.30
2023-05-08T07:00:39.382Z,1.10
2023-05-08T07:03:07.467Z,1.30
2023-05-08T07:05:35.580Z,1.20
2023-05-08T07:08:03.429Z,1.30
2023-05-08T07:10:31.243Z,1.40
2023-05-08T07:12:59.072Z,1.60
2023-05-08T07:15:27.273Z,1.40
2023-05-08T07:17:55.252Z,1.20
2023-05-08T07:20:24.778Z,1.70
2023-05-08T07:22:54.723Z,1.70
2023-05-08T07:25:23.337Z,1.60
2023-05-08T07:27:51.076Z,1.80
2023-05-08T07:30:19.005Z,1.80
2023-05-08T07:32:46.941Z,1.50
2023-05-08T07:35:15.894Z,1.50
2023-05-08T07:37:44.614Z,1.40
2023-05-08T07:40:12.477Z,1.40
2023-05-08T07:42:42.101Z,1.40
2023-05-08T07:45:12.393Z,1.30
2023-05-08T07:47:49.534Z,1.00
2023-05-08T07:50:17.718Z,1.70
2023-05-08T07:52:46.551Z,1.20
2023-05-08T07:55:15.862Z,1.30
2023-05-08T07:57:44.395Z,1.30
2023-05-08T08:00:15.065Z,1.10
2023-05-08T08:02:44.303Z,1.60
2023-05-08T08:05:12.957Z,1.70
2023-05-08T08:07:41.056Z,1.80
2023-05-08T08:10:09.236Z,1.50
2023-05-08T08:12:37.432Z,1.50
2023-05-08T08:15:05.999Z,1.50
2023-05-08T08:17:33.911Z,1.60
2023-05-08T08:20:01.794Z,1.70
2023-05-08T08:22:29.610Z,1.60
2023-05-08T08:24:57.472Z,1.90
2023-05-08T08:27:25.258Z,1.60
2023-05-08T08:30:04.487Z,1.40
2023-05-08T08:32:36.328Z,1.60
2023-05-08T08:35:04.583Z,1.20
2023-05-08T08:37:32.476Z,1.40
2023-05-08T08:40:00.522Z,1.60
2023-05-08T08:42:29.103Z,1.40
2023-05-08T08:44:56.994Z,1.30
2023-05-08T08:47:37.045Z,2.00
2023-05-08T08:50:05.703Z,1.40
2023-05-08T08:52:47.551Z,1.10
2023-05-08T08:55:18.053Z,1.60
2023-05-08T08:57:51.361Z,1.00
2023-05-08T09:00:20.502Z,1.60
2023-05-08T09:02:48.829Z,1.60
2023-05-08T09:05:17.924Z,1.60
2023-05-08T09:07:45.944Z,1.60
2023-05-08T09:10:15.802Z,1.70
2023-05-08T09:12:45.133Z,1.60
2023-05-08T09:17:41.345Z,1.50
2023-05-08T09:20:09.683Z,1.50
2023-05-08T09:22:37.923Z,1.80
2023-05-08T09:25:07.168Z,1.60
2023-05-08T09:30:12.342Z,1.50
2023-05-08T09:32:42.817Z,1.30
2023-05-08T09:35:12.540Z,1.50
2023-05-08T09:37:42.995Z,1.80
2023-05-08T09:40:21.999Z,1.50
2023-05-08T09:42:51.019Z,1.40
2023-05-08T09:45:31.590Z,1.60
2023-05-08T09:47:59.825Z,1.70
2023-05-08T09:50:27.852Z,1.60
2023-05-08T09:52:55.940Z,1.40
2023-05-08T09:55:24.449Z,1.40
2023-05-08T09:57:54.747Z,1.10
2023-05-08T10:00:23.655Z,1.50
2023-05-08T10:03:04.136Z,1.60
2023-05-08T10:05:35.569Z,1.50
2023-05-08T10:08:20.032Z,2.00
2023-05-08T10:10:47.961Z,3.50
2023-05-08T10:13:16.127Z,1.40
2023-05-08T10:15:44.965Z,1.50
2023-05-08T10:18:16.309Z,1.60
2023-05-08T10:20:48.787Z,1.50
2023-05-08T10:23:18.759Z,1.60
2023-05-08T10:25:55.912Z,1.30
2023-05-08T10:28:33.486Z,1.30
2023-05-08T10:31:05.341Z,1.50
2023-05-08T10:33:35.868Z,1.70
2023-05-08T10:36:06.017Z,1.80
2023-05-08T10:38:34.785Z,1.70
2023-05-08T10:41:02.853Z,1.30
2023-05-08T10:43:33.854Z,1.80
2023-05-08T10:46:09.773Z,1.40
2023-05-08T10:48:51.822Z,1.70
2023-05-08T10:51:42.014Z,1.50
2023-05-08T10:54:34.388Z,1.80
2023-05-08T10:57:12.558Z,1.40
2023-05-08T10:59:45.270Z,2.70
2023-05-08T11:02:15.819Z,5.40
2023-05-08T11:04:44.059Z,3.50
2023-05-08T11:07:11.857Z,2.20
2023-05-08T11:09:43.076Z,1.40
2023-05-08T11:12:23.010Z,1.40
2023-05-08T11:15:00.360Z,1.60
2023-05-08T11:17:28.719Z,1.60
2023-05-08T11:19:57.593Z,1.50
2023-05-08T11:22:29.409Z,1.20
2023-05-08T11:25:01.263Z,1.30
2023-05-08T11:27:39.461Z,1.60
2023-05-08T11:30:39.493Z,1.40
2023-05-08T11:33:07.235Z,1.60
2023-05-08T11:35:44.324Z,1.60
2023-05-08T11:38:19.225Z,1.40
2023-05-08T11:40:48.587Z,1.60
2023-05-08T11:43:36.593Z,1.80
2023-05-08T11:46:16.600Z,2.30
2023-05-08T11:48:45.069Z,1.40
2023-05-08T11:51:13.808Z,1.70
2023-05-08T11:53:43.675Z,1.40
2023-05-08T11:56:11.533Z,1.30
2023-05-08T11:58:39.300Z,1.60
2023-05-08T12:01:07.621Z,1.50
2023-05-08T12:03:36.397Z,1.80
2023-05-08T12:06:04.370Z,1.50
2023-05-08T12:08:32.103Z,1.60
2023-05-08T12:11:00.153Z,1.40
2023-05-08T12:13:29.505Z,1.30
2023-05-08T12:15:59.749Z,1.40
2023-05-08T12:18:30.690Z,1.60
2023-05-08T12:21:00.631Z,1.60
2023-05-08T12:23:29.776Z,1.90
2023-05-08T12:26:01.725Z,1.80
2023-05-08T12:28:32.185Z,1.70
2023-05-08T12:31:02.082Z,1.50
2023-05-08T12:33:31.214Z,1.60
2023-05-08T12:35:59.213Z,1.40
2023-05-08T12:38:27.881Z,1.80
2023-05-08T12:40:56.157Z,1.20
2023-05-08T12:43:36.585Z,1.70
2023-05-08T12:46:05.028Z,1.40
2023-05-08T12:48:32.911Z,2.00
2023-05-08T12:51:05.149Z,1.30
2023-05-08T12:53:33.586Z,1.30
2023-05-08T12:56:04.255Z,1.70
2023-05-08T12:58:34.350Z,1.40
2023-05-08T13:01:12.810Z,1.40
2023-05-08T13:03:41.563Z,1.80
2023-05-08T13:06:20.996Z,1.20
2023-05-08T13:08:57.263Z,1.30
2023-05-08T13:11:33.087Z,1.50
2023-05-08T13:14:01.037Z,1.40
2023-05-08T13:16:28.951Z,1.80
2023-05-08T13:18:56.691Z,1.30
2023-05-08T13:21:27.070Z,1.50
2023-05-08T13:23:56.657Z,1.30
2023-05-08T13:26:25.699Z,1.60
2023-05-08T13:28:56.165Z,1.60
2023-05-08T13:31:24.389Z,1.40
2023-05-08T13:33:52.142Z,2.60
2023-05-08T13:36:20.959Z,2.00
2023-05-08T13:38:48.923Z,1.30
2023-05-08T13:41:16.719Z,1.50
2023-05-08T13:43:45.476Z,1.30
2023-05-08T13:46:13.508Z,1.40
2023-05-08T13:48:41.261Z,1.60
2023-05-08T13:51:08.922Z,1.60
2023-05-08T13:53:37.971Z,1.70
2023-05-08T13:56:06.465Z,1.70
2023-05-08T13:58:34.230Z,1.30
2023-05-08T14:01:13.888Z,1.60
2023-05-08T14:08:47.265Z,1.30
2023-05-08T14:11:17.343Z,1.50
2023-05-08T14:13:45.081Z,1.50
2023-05-08T14:16:14.441Z,1.40
2023-05-08T14:18:42.277Z,1.30
2023-05-08T14:21:09.921Z,1.60
2023-05-08T14:23:39.208Z,1.30
2023-05-08T14:28:34.600Z,1.00
2023-05-08T14:31:02.493Z,1.80
2023-05-08T14:33:30.249Z,1.30
2023-05-08T14:35:58.020Z,1.60
2023-05-08T14:38:25.673Z,1.30
2023-05-08T14:40:56.327Z,1.40
2023-05-08T14:43:24.356Z,1.70
2023-05-08T14:45:52.049Z,1.60
2023-05-08T14:48:19.715Z,1.70
2023-05-08T14:50:47.453Z,1.50
2023-05-08T14:53:15.346Z,1.10
2023-05-08T14:55:43.655Z,1.30
2023-05-08T14:58:11.735Z,1.70
2023-05-08T15:00:39.708Z,1.60
2023-05-08T15:03:07.588Z,1.40
2023-05-08T15:05:36.873Z,1.40
2023-05-08T15:08:05.661Z,1.30
2023-05-08T15:10:33.316Z,1.30
2023-05-08T15:13:01.245Z,1.50
2023-05-08T15:15:28.917Z,1.30
2023-05-08T15:17:56.681Z,1.50
2023-05-08T15:20:24.538Z,1.20
2023-05-08T15:22:52.311Z,1.80
2023-05-08T15:25:20.233Z,1.20
2023-05-08T15:27:52.618Z,1.50
2023-05-08T15:30:21.102Z,1.40
2023-05-08T15:32:48.941Z,1.40
2023-05-08T15:35:17.035Z,1.50
2023-05-08T15:37:44.688Z,1.50
2023-05-08T15:40:12.948Z,1.60
2023-05-08T15:42:40.692Z,1.60
2023-05-08T15:45:10.279Z,1.60
2023-05-08T15:47:38.029Z,1.30
2023-05-08T15:50:06.384Z,1.40
2023-05-08T15:52:34.165Z,1.20
2023-05-08T15:55:01.909Z,1.40
2023-05-08T15:57:29.600Z,1.60
2023-05-08T15:59:57.599Z,1.60
2023-05-08T16:02:25.595Z,1.60
2023-05-08T16:04:53.336Z,1.10
2023-05-08T16:07:21.077Z,1.70
2023-05-08T16:09:48.723Z,1.60
2023-05-08T16:12:17.271Z,1.30
2023-05-08T16:14:45.253Z,1.60
2023-05-08T16:17:13.145Z,1.10
2023-05-08T16:19:40.896Z,1.20
2023-05-08T16:22:08.556Z,1.20
2023-05-08T16:24:36.179Z,1.30
2023-05-08T16:27:04.009Z,1.70
2023-05-08T16:29:31.657Z,1.20
2023-05-08T16:31:59.475Z,1.10
2023-05-08T16:34:27.360Z,1.10
2023-05-08T16:36:55.161Z,1.10
2023-05-08T16:39:23.070Z,1.50
2023-05-08T16:41:50.751Z,1.30
2023-05-08T16:44:18.483Z,1.90
2023-05-08T16:46:46.203Z,1.30
2023-05-08T16:49:14.188Z,1.20
2023-05-08T16:51:42.609Z,1.30
2023-05-08T16:54:10.303Z,1.60
2023-05-08T16:56:37.930Z,1.30
2023-05-08T16:59:08.556Z,1.40
2023-05-08T17:01:37.397Z,1.30
2023-05-08T17:04:05.368Z,1.50
2023-05-08T17:06:33.057Z,1.50
2023-05-08T17:09:00.857Z,1.20
2023-05-08T17:11:28.666Z,1.10
2023-05-08T17:13:56.366Z,1.40
2023-05-08T17:16:24.108Z,1.30
2023-05-08T17:18:51.805Z,1.70
2023-05-08T17:21:20.710Z,1.70
2023-05-08T17:23:49.181Z,1.40
2023-05-08T17:26:16.896Z,1.50
2023-05-08T17:28:44.659Z,1.30
2023-05-08T17:31:13.212Z,1.50
2023-05-08T17:33:40.909Z,1.90
2023-05-08T17:36:09.156Z,1.50
2023-05-08T17:38:43.276Z,1.20
2023-05-08T17:41:11.917Z,1.40
2023-05-08T17:43:40.029Z,1.50
2023-05-08T17:46:08.191Z,1.90
2023-05-08T17:48:36.254Z,1.90
2023-05-08T17:51:04.402Z,1.90
2023-05-08T17:53:32.778Z,2.30
2023-05-08T17:56:00.600Z,2.00
2023-05-08T17:58:28.601Z,2.90
2023-05-08T18:00:57.139Z,3.30
2023-05-08T18:03:25.008Z,3.50
2023-05-08T18:05:52.922Z,2.90
2023-05-08T18:08:20.768Z,3.20
2023-05-08T18:10:48.637Z,3.40
2023-05-08T18:13:16.342Z,3.20
2023-05-08T18:15:44.449Z,3.90
2023-05-08T18:18:12.165Z,3.50
2023-05-08T18:20:40.069Z,3.90
2023-05-08T18:23:08.639Z,4.70
2023-05-08T18:25:37.087Z,4.40
2023-05-08T18:28:05.025Z,4.00
2023-05-08T18:30:36.292Z,3.90
2023-05-08T18:33:04.289Z,2.80
2023-05-08T18:35:32.045Z,3.50
2023-05-08T18:37:59.735Z,3.10
2023-05-08T18:40:27.588Z,3.10
2023-05-08T18:42:56.025Z,2.80
2023-05-08T18:45:24.907Z,3.00
2023-05-08T18:47:54.228Z,3.30
2023-05-08T18:50:22.146Z,3.40
2023-05-08T18:52:51.084Z,2.90
2023-05-08T18:55:20.135Z,3.00
2023-05-08T18:57:47.883Z,3.40
2023-05-08T19:00:16.563Z,3.30
2023-05-08T19:02:46.756Z,3.40
2023-05-08T19:05:14.484Z,3.70
2023-05-08T19:07:42.759Z,2.90
2023-05-08T19:10:11.480Z,2.80
2023-05-08T19:12:39.727Z,3.10
2023-05-08T19:15:09.418Z,2.80
2023-05-08T19:17:37.984Z,2.50
2023-05-08T19:20:06.441Z,2.90
2023-05-08T19:22:35.845Z,3.30
2023-05-08T19:25:04.533Z,4.00
2023-05-08T19:27:32.275Z,3.10
2023-05-08T19:30:00.131Z,3.20
2023-05-08T19:32:28.741Z,3.60
2023-05-08T19:34:57.480Z,3.80
2023-05-08T19:37:25.334Z,5.00
2023-05-08T19:39:53.202Z,5.60
2023-05-08T19:42:21.482Z,6.40
2023-05-08T19:44:49.478Z,6.40
2023-05-08T19:47:17.467Z,6.10
2023-05-08T19:49:45.277Z,6.70
2023-05-08T19:52:12.998Z,6.50
2023-05-08T19:54:40.834Z,6.40
2023-05-08T19:57:08.603Z,6.70
2023-05-08T19:59:36.799Z,7.20
2023-05-08T20:02:04.547Z,6.60
2023-05-08T20:04:36.969Z,5.90
2023-05-08T20:07:16.068Z,5.90
2023-05-08T20:09:46.204Z,5.60
2023-05-08T20:12:14.101Z,6.00
2023-05-08T20:14:42.415Z,5.50
2023-05-08T20:17:10.322Z,5.80
2023-05-08T20:19:38.203Z,6.00
2023-05-08T20:22:06.237Z,5.20
2023-05-08T20:24:33.989Z,5.00
2023-05-08T20:27:02.579Z,4.90
2023-05-08T20:29:30.277Z,4.10
2023-05-08T20:31:58.133Z,4.60
2023-05-08T20:34:25.804Z,4.40
2023-05-08T20:36:53.600Z,4.10
2023-05-08T20:39:21.495Z,4.70
2023-05-08T20:41:49.156Z,5.00
2023-05-08T20:44:19.125Z,4.80
2023-05-08T20:46:46.794Z,4.90
2023-05-08T20:49:14.598Z,5.00
2023-05-08T20:51:42.275Z,4.70
2023-05-08T20:54:10.163Z,4.50
2023-05-08T20:56:37.861Z,4.90
2023-05-08T20:59:05.644Z,4.50
2023-05-08T21:01:33.434Z,4.90
2023-05-08T21:04:01.368Z,5.40
2023-05-08T21:06:29.629Z,5.50
2023-05-08T21:08:57.809Z,4.60
2023-05-08T21:11:25.893Z,5.30
2023-05-08T21:13:53.599Z,6.30
2023-05-08T21:16:22.192Z,5.60
2023-05-08T21:21:22.893Z,5.10
2023-05-08T21:23:50.930Z,6.40
2023-05-08T21:26:20.009Z,5.80
2023-05-08T21:28:47.904Z,6.20
2023-05-08T21:31:15.614Z,4.60
2023-05-08T21:33:43.317Z,5.60
2023-05-08T21:36:10.938Z,5.50
2023-05-08T21:38:38.954Z,5.60
2023-05-08T21:41:08.333Z,5.70
2023-05-08T21:43:36.365Z,5.70
2023-05-08T21:46:05.769Z,6.60
2023-05-08T21:48:34.128Z,5.60
2023-05-08T21:51:02.403Z,5.60
2023-05-08T21:53:30.219Z,6.10
2023-05-08T21:55:59.184Z,6.10
2023-05-08T21:58:26.918Z,6.00
2023-05-08T22:00:55.493Z,5.90
2023-05-08T22:03:24.647Z,5.80
2023-05-08T22:05:52.499Z,5.50
2023-05-08T22:08:20.198Z,5.00
2023-05-08T22:10:47.970Z,5.60
2023-05-08T22:13:15.702Z,6.00
2023-05-08T22:15:43.442Z,6.10
2023-05-08T22:18:11.327Z,5.50
2023-05-08T22:20:39.089Z,5.60
2023-05-08T22:23:06.799Z,5.10
2023-05-08T22:25:34.590Z,5.60
2023-05-08T22:28:02.285Z,5.80
2023-05-08T22:30:30.038Z,5.90
2023-05-08T22:32:58.151Z,5.60
2023-05-08T22:35:27.733Z,5.00
2023-05-08T22:37:57.268Z,5.60
2023-05-08T22:40:25.726Z,5.50
2023-05-08T22:42:55.806Z,5.30
2023-05-08T22:45:23.718Z,6.00
2023-05-08T22:47:51.563Z,5.00
2023-05-08T22:50:19.482Z,5.20
2023-05-08T22:52:47.220Z,5.40
2023-05-08T22:55:15.868Z,5.70
2023-05-08T22:57:44.292Z,4.90
2023-05-08T23:00:12.567Z,5.40
2023-05-08T23:02:40.247Z,5.60
2023-05-08T23:05:08.497Z,5.50
2023-05-08T23:07:36.188Z,6.00
2023-05-08T23:10:03.993Z,6.10
2023-05-08T23:12:31.967Z,5.60
2023-05-08T23:14:59.611Z,5.90
2023-05-08T23:17:27.389Z,5.30
2023-05-08T23:19:55.094Z,5.10
2023-05-08T23:22:22.745Z,6.10
2023-05-08T23:24:50.488Z,5.70
2023-05-08T23:27:18.119Z,4.60
2023-05-08T23:29:45.895Z,5.10
2023-05-08T23:32:14.618Z,4.40
2023-05-08T23:34:43.139Z,5.10
2023-05-08T23:37:10.867Z,5.10
2023-05-08T23:39:41.510Z,4.70
2023-05-08T23:42:09.384Z,6.30
2023-05-08T23:44:37.312Z,5.10
2023-05-08T23:47:05.116Z,4.60
2023-05-08T23:49:32.907Z,5.20
2023-05-08T23:52:01.293Z,5.50
2023-05-08T23:54:28.950Z,4.90
2023-05-08T23:56:56.668Z,4.70
2023-05-08T23:59:24.397Z,5.00
